createdAt,value
2023-03-05T00:00:43.065Z,66.58
2023-03-05T00:06:01.563Z,67.01
2023-03-05T00:11:11.396Z,66.35
2023-03-05T00:16:30.021Z,66.92
2023-03-05T00:21:43.861Z,67.60
2023-03-05T00:26:47.534Z,67.01
2023-03-05T00:31:50.726Z,67.15
2023-03-05T00:36:55.290Z,67.48
2023-03-05T00:41:59.270Z,67.75
2023-03-05T00:47:02.351Z,67.09
2023-03-05T00:52:07.424Z,67.24
2023-03-05T00:57:10.903Z,67.43
2023-03-05T01:02:13.647Z,68.31
2023-03-05T01:07:16.731Z,67.84
2023-03-05T01:12:19.773Z,67.56
2023-03-05T01:17:22.193Z,68.04
2023-03-05T01:22:25.367Z,67.65
2023-03-05T01:27:29.006Z,68.12
2023-03-05T01:32:34.717Z,68.55
2023-03-05T01:37:40.080Z,68.35
2023-03-05T01:42:51.531Z,68.12
2023-03-05T01:47:54.482Z,68.54
2023-03-05T01:53:04.537Z,68.77
2023-03-05T01:58:11.173Z,68.95
2023-03-05T02:03:16.970Z,68.23
2023-03-05T02:08:21.664Z,68.48
2023-03-05T02:13:32.320Z,68.23
2023-03-05T02:18:35.168Z,68.17
2023-03-05T02:23:41.081Z,68.39
2023-03-05T02:28:52.997Z,69.13
2023-03-05T02:33:58.609Z,68.25
2023-03-05T02:39:02.732Z,68.47
2023-03-05T02:44:06.547Z,68.21
2023-03-05T02:49:10.212Z,68.54
2023-03-05T02:54:13.343Z,68.86
2023-03-05T02:59:16.505Z,69.43
2023-03-05T03:04:19.139Z,69.02
2023-03-05T03:09:21.636Z,69.55
2023-03-05T03:14:28.045Z,70.08
2023-03-05T03:19:30.948Z,69.74
2023-03-05T03:24:35.134Z,70.00
2023-03-05T03:29:38.419Z,69.54
2023-03-05T03:34:41.056Z,70.33
2023-03-05T03:39:49.766Z,69.86
2023-03-05T03:45:03.210Z,69.80
2023-03-05T03:50:07.128Z,69.65
2023-03-05T03:55:13.930Z,69.49
2023-03-05T04:00:20.104Z,69.03
2023-03-05T04:05:22.574Z,68.74
2023-03-05T04:10:26.733Z,68.55
2023-03-05T04:15:33.677Z,68.92
2023-03-05T04:20:37.132Z,68.08
2023-03-05T04:25:39.717Z,67.87
2023-03-05T04:30:42.202Z,68.03
2023-03-05T04:35:47.749Z,68.53
2023-03-05T04:40:52.697Z,68.63
2023-03-05T04:45:59.094Z,67.93
2023-03-05T04:51:02.160Z,68.41
2023-03-05T04:56:07.240Z,68.70
2023-03-05T05:01:10.268Z,67.93
2023-03-05T05:06:12.944Z,67.57
2023-03-05T05:11:16.069Z,67.88
2023-03-05T05:16:19.546Z,67.14
2023-03-05T05:21:22.389Z,66.55
2023-03-05T05:26:28.355Z,66.24
2023-03-05T05:31:31.488Z,66.38
2023-03-05T05:36:34.749Z,65.99
2023-03-05T05:41:37.108Z,65.89
2023-03-05T05:46:40.279Z,64.03
2023-03-05T05:51:43.308Z,64.15
2023-03-05T05:56:46.188Z,63.88
2023-03-05T06:01:48.627Z,63.69
2023-03-05T06:06:51.233Z,60.35
2023-03-05T06:11:53.506Z,59.84
2023-03-05T06:16:56.197Z,59.44
2023-03-05T06:21:59.029Z,58.68
2023-03-05T06:27:01.930Z,56.92
2023-03-05T06:32:05.124Z,57.57
2023-03-05T06:37:07.540Z,57.32
2023-03-05T06:42:10.425Z,58.72
2023-03-05T06:47:13.166Z,59.33
2023-03-05T06:52:16.615Z,59.64
2023-03-05T06:57:18.891Z,59.27
2023-03-05T07:02:22.366Z,60.11
2023-03-05T07:07:25.294Z,60.28
2023-03-05T07:12:28.491Z,59.60
2023-03-05T07:17:30.899Z,59.67
2023-03-05T07:22:33.463Z,60.30
2023-03-05T07:27:37.807Z,60.22
2023-03-05T07:32:41.357Z,60.27
2023-03-05T07:37:43.859Z,59.58
2023-03-05T07:42:47.830Z,59.99
2023-03-05T07:47:59.920Z,59.70
2023-03-05T07:53:04.535Z,59.85
2023-03-05T07:58:07.546Z,58.93
2023-03-05T08:03:10.698Z,58.55
2023-03-05T08:08:13.074Z,57.87
2023-03-05T08:13:16.586Z,56.96
2023-03-05T08:18:19.876Z,57.33
2023-03-05T08:23:22.356Z,56.90
2023-03-05T08:28:24.915Z,57.17
2023-03-05T08:33:31.286Z,56.30
2023-03-05T08:38:34.694Z,56.88
2023-03-05T08:43:37.357Z,57.18
2023-03-05T08:48:40.320Z,56.80
2023-03-05T08:53:45.012Z,57.17
2023-03-05T08:58:48.839Z,55.95
2023-03-05T09:03:51.865Z,55.45
2023-03-05T09:08:54.899Z,56.11
2023-03-05T09:13:57.845Z,55.04
2023-03-05T09:19:00.724Z,53.82
2023-03-05T09:24:03.698Z,53.72
2023-03-05T09:29:07.835Z,53.74
2023-03-05T09:34:12.056Z,52.92
2023-03-05T09:39:15.422Z,53.07
2023-03-05T09:44:42.777Z,51.21
2023-03-05T09:50:22.299Z,51.01
2023-03-05T09:55:33.443Z,51.02
2023-03-05T10:00:45.544Z,51.55
2023-03-05T10:05:50.941Z,51.60
2023-03-05T10:10:54.628Z,51.86
2023-03-05T10:16:12.247Z,53.88
2023-03-05T10:21:26.676Z,54.86
2023-03-05T10:26:38.146Z,54.15
2023-03-05T10:31:53.237Z,53.05
2023-03-05T10:37:01.629Z,53.12
2023-03-05T10:42:26.287Z,52.89
2023-03-05T10:47:38.851Z,52.87
2023-03-05T10:52:46.902Z,53.28
2023-03-05T10:57:50.037Z,52.00
2023-03-05T11:03:07.491Z,52.10
2023-03-05T11:08:30.175Z,51.71
2023-03-05T11:13:34.075Z,51.56
2023-03-05T11:18:36.585Z,52.03
2023-03-05T11:23:39.126Z,52.61
2023-03-05T11:28:57.205Z,51.97
2023-03-05T11:34:17.940Z,51.34
2023-03-05T11:39:24.041Z,52.42
2023-03-05T11:44:36.535Z,53.56
2023-03-05T11:49:42.164Z,53.42
2023-03-05T11:55:06.006Z,54.44
2023-03-05T12:00:13.344Z,54.48
2023-03-05T12:05:17.918Z,55.46
2023-03-05T12:10:24.627Z,53.90
2023-03-05T12:15:46.244Z,53.47
2023-03-05T12:21:03.082Z,52.45
2023-03-05T12:26:06.282Z,51.22
2023-03-05T12:31:08.882Z,51.91
2023-03-05T12:36:23.818Z,51.55
2023-03-05T12:41:31.590Z,51.51
2023-03-05T12:46:38.437Z,51.62
2023-03-05T12:51:42.095Z,51.26
2023-03-05T12:56:46.705Z,52.40
2023-03-05T13:01:59.076Z,52.38
2023-03-05T13:07:13.476Z,52.67
2023-03-05T13:12:15.896Z,53.54
2023-03-05T13:17:52.081Z,53.83
2023-03-05T13:23:13.471Z,54.22
2023-03-05T13:28:17.701Z,52.62
2023-03-05T13:33:26.294Z,53.22
2023-03-05T13:38:35.988Z,54.01
2023-03-05T13:44:04.730Z,54.40
2023-03-05T13:49:29.171Z,53.83
2023-03-05T13:54:32.111Z,53.85
2023-03-05T13:59:39.212Z,54.01
2023-03-05T14:04:46.687Z,53.71
2023-03-05T14:09:52.644Z,54.07
2023-03-05T14:15:24.269Z,54.09
2023-03-05T14:20:39.866Z,54.40
2023-03-05T14:25:50.780Z,55.00
2023-03-05T14:31:19.953Z,55.03
2023-03-05T14:36:41.204Z,56.02
2023-03-05T14:41:46.651Z,56.59
2023-03-05T14:46:52.201Z,56.26
2023-03-05T14:52:01.243Z,56.98
2023-03-05T14:57:14.428Z,56.95
2023-03-05T15:02:23.387Z,57.07
2023-03-05T15:07:34.806Z,55.71
2023-03-05T15:12:37.292Z,55.83
2023-03-05T15:17:47.754Z,55.89
2023-03-05T15:23:03.575Z,54.99
2023-03-05T15:28:26.110Z,55.63
2023-03-05T15:33:33.147Z,54.21
2023-03-05T15:38:39.380Z,53.66
2023-03-05T15:43:42.031Z,52.27
2023-03-05T15:48:50.449Z,52.18
2023-03-05T15:53:55.981Z,52.76
2023-03-05T15:59:01.725Z,51.78
2023-03-05T16:04:15.063Z,51.90
2023-03-05T16:09:25.903Z,50.43
2023-03-05T16:14:32.735Z,50.87
2023-03-05T16:19:44.120Z,50.78
2023-03-05T16:24:46.979Z,49.73
2023-03-05T16:29:50.920Z,50.35
2023-03-05T16:34:53.505Z,50.98
2023-03-05T16:39:59.845Z,49.95
2023-03-05T16:45:02.846Z,50.65
2023-03-05T16:50:07.786Z,49.91
2023-03-05T16:55:10.785Z,50.06
2023-03-05T17:00:15.127Z,50.29
2023-03-05T17:05:20.316Z,50.48
2023-03-05T17:10:22.979Z,50.58
2023-03-05T17:15:26.173Z,50.39
2023-03-05T17:20:29.753Z,50.92
2023-03-05T17:25:32.411Z,51.50
2023-03-05T17:30:37.184Z,51.62
2023-03-05T17:35:40.125Z,51.66
2023-03-05T17:40:42.845Z,52.55
2023-03-05T17:45:47.408Z,52.35
2023-03-05T17:50:51.169Z,53.03
2023-03-05T17:56:01.688Z,54.15
2023-03-05T18:01:05.321Z,54.96
2023-03-05T18:06:07.982Z,54.35
2023-03-05T18:11:10.978Z,53.91
2023-03-05T18:16:17.130Z,54.00
2023-03-05T18:21:25.418Z,54.36
2023-03-05T18:26:27.920Z,53.82
2023-03-05T18:31:31.670Z,55.59
2023-03-05T18:36:34.096Z,55.16
2023-03-05T18:41:37.559Z,54.76
2023-03-05T18:46:41.646Z,54.28
2023-03-05T18:51:44.178Z,54.44
2023-03-05T18:56:46.884Z,54.52
2023-03-05T19:01:49.958Z,54.08
2023-03-05T19:06:53.477Z,53.76
2023-03-05T19:11:57.712Z,54.03
2023-03-05T19:17:00.325Z,53.37
2023-03-05T19:22:04.066Z,53.84
2023-03-05T19:27:13.908Z,54.22
2023-03-05T19:32:18.296Z,54.32
2023-03-05T19:37:20.959Z,54.31
2023-03-05T19:42:24.039Z,54.55
2023-03-05T19:47:26.640Z,53.91
2023-03-05T19:52:29.108Z,53.35
2023-03-05T19:57:31.669Z,53.27
2023-03-05T20:02:34.174Z,53.11
2023-03-05T20:07:36.848Z,53.18
2023-03-05T20:12:39.939Z,52.32
2023-03-05T20:17:45.943Z,53.06
2023-03-05T20:22:48.346Z,53.10
2023-03-05T20:27:51.857Z,53.49
2023-03-05T20:32:54.192Z,51.78
2023-03-05T20:38:21.448Z,52.28
2023-03-05T20:43:27.123Z,53.20
2023-03-05T20:48:59.972Z,52.82
2023-03-05T20:54:11.902Z,53.64
2023-03-05T20:59:31.453Z,54.38
2023-03-05T21:05:15.192Z,54.59
2023-03-05T21:10:54.216Z,57.29
2023-03-05T21:15:59.030Z,59.07
2023-03-05T21:21:01.645Z,59.67
2023-03-05T21:26:05.667Z,59.18
2023-03-05T21:31:14.632Z,59.13
2023-03-05T21:36:20.293Z,58.76
2023-03-05T21:41:23.973Z,58.97
2023-03-05T21:46:28.231Z,59.71
2023-03-05T21:51:38.994Z,59.46
2023-03-05T21:56:43.316Z,59.20
2023-03-05T22:01:46.273Z,59.98
2023-03-05T22:06:49.282Z,59.10
2023-03-05T22:11:52.208Z,59.04
2023-03-05T22:17:02.369Z,59.40
2023-03-05T22:22:05.370Z,59.31
2023-03-05T22:27:12.100Z,59.19
2023-03-05T22:32:16.543Z,60.35
2023-03-05T22:37:20.903Z,60.21
2023-03-05T22:42:24.603Z,60.27
2023-03-05T22:47:28.211Z,60.38
2023-03-05T22:52:31.959Z,60.14
2023-03-05T22:57:34.636Z,60.92
2023-03-05T23:02:37.340Z,62.58
2023-03-05T23:07:44.023Z,61.90
2023-03-05T23:12:50.437Z,61.29
2023-03-05T23:17:53.649Z,61.91
2023-03-05T23:22:56.827Z,61.35
2023-03-05T23:28:00.179Z,60.93
2023-03-05T23:33:02.538Z,61.11
2023-03-05T23:38:08.684Z,61.05
2023-03-05T23:43:12.547Z,62.08
2023-03-05T23:48:15.962Z,61.48
2023-03-05T23:53:21.616Z,62.77
2023-03-05T23:58:25.024Z,63.14
